createdAt,value
2018-12-09T00:00:13.558Z,98587.84
2018-12-09T00:01:16.137Z,98587.05
2018-12-09T00:02:18.632Z,98597.82
2018-12-09T00:03:21.110Z,98600.36
2018-12-09T00:04:23.618Z,98595.81
2018-12-09T00:05:26.157Z,98597.77
2018-12-09T00:06:28.657Z,98592.06
2018-12-09T00:07:31.291Z,98581.45
2018-12-09T00:08:33.921Z,98586.73
2018-12-09T00:09:36.402Z,98585.70
2018-12-09T00:10:38.860Z,98587.08
2018-12-09T00:11:41.578Z,98588.23
2018-12-09T00:12:44.107Z,98586.49
2018-12-09T00:13:46.582Z,98598.34
2018-12-09T00:14:49.070Z,98603.42
2018-12-09T00:15:51.551Z,98596.11
2018-12-09T00:16:54.038Z,98598.27
2018-12-09T00:17:56.568Z,98591.77
2018-12-09T00:18:59.087Z,98597.05
2018-12-09T00:20:01.675Z,98594.30
2018-12-09T00:21:04.208Z,98591.56
2018-12-09T00:22:06.748Z,98603.92
2018-12-09T00:23:09.287Z,98596.47
2018-12-09T00:24:11.753Z,98601.17
2018-12-09T00:25:14.345Z,98606.66
2018-12-09T00:26:16.848Z,98598.22
2018-12-09T00:27:19.327Z,98608.62
2018-12-09T00:28:22.161Z,98612.16
2018-12-09T00:29:24.717Z,98613.53
2018-12-09T00:30:27.286Z,98610.57
2018-12-09T00:31:29.876Z,98602.33
2018-12-09T00:32:32.425Z,98600.96
2018-12-09T00:33:34.976Z,98601.33
2018-12-09T00:34:37.454Z,98607.03
2018-12-09T00:35:39.921Z,98599.59
2018-12-09T00:36:43.173Z,98607.98
2018-12-09T00:37:45.652Z,98606.03
2018-12-09T00:38:48.142Z,98597.58
2018-12-09T00:39:50.638Z,98605.61
2018-12-09T00:40:53.095Z,98602.06
2018-12-09T00:41:55.624Z,98609.72
2018-12-09T00:42:58.127Z,98604.23
2018-12-09T00:44:00.624Z,98608.94
2018-12-09T00:45:03.125Z,98608.14
2018-12-09T00:46:05.584Z,98620.50
2018-12-09T00:47:08.045Z,98610.67
2018-12-09T00:48:10.592Z,98613.63
2018-12-09T00:49:13.186Z,98616.38
2018-12-09T00:50:15.681Z,98604.39
2018-12-09T00:51:18.143Z,98602.80
2018-12-09T00:52:20.596Z,98608.51
2018-12-09T00:53:23.077Z,98600.40
2018-12-09T00:54:25.611Z,98610.46
2018-12-09T00:55:28.083Z,98597.07
2018-12-09T00:56:30.567Z,98598.45
2018-12-09T00:57:33.020Z,98601.77
2018-12-09T00:58:35.854Z,98605.89
2018-12-09T00:59:38.332Z,98601.77
2018-12-09T01:00:40.914Z,98611.04
2018-12-09T01:01:43.482Z,98611.04
2018-12-09T01:02:45.981Z,98604.52
2018-12-09T01:03:48.473Z,98610.22
2018-12-09T01:04:50.982Z,98613.55
2018-12-09T01:05:53.469Z,98614.34
2018-12-09T01:06:55.942Z,98601.56
2018-12-09T01:07:58.427Z,98603.72
2018-12-09T01:09:00.918Z,98611.30
2018-12-09T01:10:04.470Z,98609.34
2018-12-09T01:11:06.955Z,98600.68
2018-12-09T01:12:09.464Z,98604.59
2018-12-09T01:13:11.944Z,98606.54
2018-12-09T01:14:14.546Z,98602.79
2018-12-09T01:15:17.115Z,98605.75
2018-12-09T01:16:19.647Z,98609.66
2018-12-09T01:17:22.319Z,98615.30
2018-12-09T01:18:24.801Z,98606.48
2018-12-09T01:19:27.309Z,98606.48
2018-12-09T01:20:29.788Z,98604.11
2018-12-09T01:21:32.262Z,98612.55
2018-12-09T01:22:34.933Z,98618.41
2018-12-09T01:23:37.412Z,98610.39
2018-12-09T01:24:39.890Z,98609.97
2018-12-09T01:25:42.413Z,98615.45
2018-12-09T01:26:44.880Z,98604.84
2018-12-09T01:27:47.345Z,98620.73
2018-12-09T01:28:49.872Z,98617.77
2018-12-09T01:29:52.354Z,98612.07
2018-12-09T01:30:54.850Z,98620.06
2018-12-09T01:31:57.328Z,98616.52
2018-12-09T01:32:59.810Z,98614.94
2018-12-09T01:34:02.294Z,98617.11
2018-12-09T01:35:05.875Z,98615.52
2018-12-09T01:36:08.914Z,98638.05
2018-12-09T01:37:11.409Z,98619.64
2018-12-09T01:38:13.885Z,98625.12
2018-12-09T01:39:16.362Z,98623.54
2018-12-09T01:40:18.849Z,98618.05
2018-12-09T01:41:21.369Z,98633.14
2018-12-09T01:42:24.085Z,98624.91
2018-12-09T01:43:26.550Z,98634.52
2018-12-09T01:44:29.092Z,98637.05
2018-12-09T01:45:31.724Z,98638.42
2018-12-09T01:46:34.222Z,98623.91
2018-12-09T01:47:36.697Z,98637.05
2018-12-09T01:48:39.172Z,98631.56
2018-12-09T01:49:41.651Z,98645.87
2018-12-09T01:50:44.137Z,98627.23
2018-12-09T01:51:47.130Z,98639.58
2018-12-09T01:52:51.547Z,98638.79
2018-12-09T01:54:08.895Z,98643.70
2018-12-09T01:55:11.389Z,98643.70
2018-12-09T01:56:14.208Z,98647.81
2018-12-09T01:57:17.127Z,98656.62
2018-12-09T01:58:19.664Z,98647.02
2018-12-09T01:59:22.339Z,98652.73
2018-12-09T02:00:24.909Z,98650.78
2018-12-09T02:01:27.520Z,98660.75
2018-12-09T02:02:30.024Z,98658.00
2018-12-09T02:03:32.506Z,98657.64
2018-12-09T02:04:34.990Z,98660.16
2018-12-09T02:05:37.471Z,98657.42
2018-12-09T02:06:40.001Z,98659.01
2018-12-09T02:07:42.492Z,98654.09
2018-12-09T02:08:44.976Z,98651.72
2018-12-09T02:09:47.514Z,98647.45
2018-12-09T02:10:49.983Z,98656.27
2018-12-09T02:11:52.467Z,98658.80
2018-12-09T02:12:55.369Z,98660.16
2018-12-09T02:13:57.939Z,98668.77
2018-12-09T02:15:00.408Z,98661.33
2018-12-09T02:16:02.897Z,98665.44
2018-12-09T02:17:05.532Z,98671.52
2018-12-09T02:18:08.095Z,98666.60
2018-12-09T02:19:14.938Z,98665.02
2018-12-09T02:20:17.436Z,98659.52
2018-12-09T02:21:19.896Z,98670.72
2018-12-09T02:22:22.411Z,98665.59
2018-12-09T02:23:25.168Z,98682.86
2018-12-09T02:24:27.646Z,98686.97
2018-12-09T02:25:30.128Z,98684.23
2018-12-09T02:26:32.610Z,98677.73
2018-12-09T02:27:35.102Z,98679.10
2018-12-09T02:28:37.646Z,98676.94
2018-12-09T02:29:40.145Z,98670.29
2018-12-09T02:30:43.090Z,98676.94
2018-12-09T02:31:45.579Z,98674.19
2018-12-09T02:32:48.127Z,98674.19
2018-12-09T02:33:50.608Z,98677.16
2018-12-09T02:34:53.938Z,98683.80
2018-12-09T02:35:56.434Z,98661.84
2018-12-09T02:36:58.963Z,98674.41
2018-12-09T02:38:01.545Z,98666.75
2018-12-09T02:39:05.933Z,98670.88
2018-12-09T02:40:08.460Z,98661.27
2018-12-09T02:41:10.973Z,98672.24
2018-12-09T02:42:13.431Z,98676.36
2018-12-09T02:43:15.996Z,98681.05
2018-12-09T02:44:18.488Z,98678.31
2018-12-09T02:45:21.018Z,98687.91
2018-12-09T02:46:23.570Z,98687.70
2018-12-09T02:47:26.852Z,98680.84
2018-12-09T02:48:29.855Z,98682.00
2018-12-09T02:49:32.350Z,98673.98
2018-12-09T02:50:34.860Z,98686.55
2018-12-09T02:51:37.358Z,98672.03
2018-12-09T02:52:39.848Z,98680.27
2018-12-09T02:53:42.436Z,98684.59
2018-12-09T02:54:45.059Z,98678.31
2018-12-09T02:55:47.562Z,98670.08
2018-12-09T02:56:50.216Z,98670.88
2018-12-09T02:57:52.687Z,98674.63
2018-12-09T02:58:55.188Z,98670.88
2018-12-09T02:59:57.685Z,98668.92
2018-12-09T03:01:00.168Z,98670.50
2018-12-09T03:02:02.648Z,98662.70
2018-12-09T03:03:05.190Z,98667.77
2018-12-09T03:04:08.148Z,98680.33
2018-12-09T03:05:11.058Z,98672.30
2018-12-09T03:06:13.589Z,98672.30
2018-12-09T03:07:16.084Z,98661.33
2018-12-09T03:08:18.585Z,98662.12
2018-12-09T03:09:21.102Z,98655.26
2018-12-09T03:10:23.659Z,98664.07
2018-12-09T03:11:26.168Z,98662.70
2018-12-09T03:12:28.922Z,98675.84
2018-12-09T03:13:31.394Z,98672.30
2018-12-09T03:14:33.876Z,98676.64
2018-12-09T03:15:36.347Z,98684.29
2018-12-09T03:16:38.825Z,98688.98
2018-12-09T03:17:41.289Z,98694.48
2018-12-09T03:18:43.756Z,98697.22
2018-12-09T03:19:46.348Z,98694.11
2018-12-09T03:20:49.454Z,98688.63
2018-12-09T03:21:51.943Z,98696.28
2018-12-09T03:22:54.424Z,98707.05
2018-12-09T03:23:56.894Z,98702.12
2018-12-09T03:24:59.479Z,98700.18
2018-12-09T03:26:02.097Z,98703.29
2018-12-09T03:27:04.576Z,98704.08
2018-12-09T03:28:07.132Z,98746.77
2018-12-09T03:29:09.716Z,98704.81
2018-12-09T03:30:12.353Z,98710.30
2018-12-09T03:31:14.861Z,98722.07
2018-12-09T03:32:17.442Z,98719.11
2018-12-09T03:33:19.934Z,98716.38
2018-12-09T03:34:22.407Z,98705.97
2018-12-09T03:35:24.898Z,98716.95
2018-12-09T03:36:28.049Z,98737.31
2018-12-09T03:37:30.556Z,98726.92
2018-12-09T03:38:33.064Z,98723.38
2018-12-09T03:39:35.574Z,98734.36
2018-12-09T03:40:38.056Z,98744.54
2018-12-09T03:41:40.636Z,98756.09
2018-12-09T03:42:43.114Z,98737.68
2018-12-09T03:43:45.576Z,98745.91
2018-12-09T03:44:48.064Z,98751.41
2018-12-09T03:45:50.610Z,98750.61
2018-12-09T03:46:53.117Z,98752.20
2018-12-09T03:47:55.599Z,98756.89
2018-12-09T03:48:58.078Z,98752.56
2018-12-09T03:50:00.581Z,98746.06
2018-12-09T03:51:03.064Z,98750.39
2018-12-09T03:52:05.948Z,98742.16
2018-12-09T03:53:08.429Z,98749.02
2018-12-09T03:54:10.906Z,98745.13
2018-12-09T03:55:13.387Z,98736.89
2018-12-09T03:56:15.851Z,98730.60
2018-12-09T03:57:18.328Z,98729.23
2018-12-09T03:58:20.801Z,98716.88
2018-12-09T03:59:23.293Z,98722.01
2018-12-09T04:00:25.888Z,98719.84
2018-12-09T04:01:28.371Z,98711.17
2018-12-09T04:02:30.859Z,98707.06
2018-12-09T04:03:33.340Z,98710.60
2018-12-09T04:04:35.837Z,98711.97
2018-12-09T04:05:38.342Z,98710.60
2018-12-09T04:06:41.255Z,98709.23
2018-12-09T04:07:43.844Z,98720.20
2018-12-09T04:08:46.312Z,98713.92
2018-12-09T04:09:48.803Z,98719.99
2018-12-09T04:10:51.319Z,98735.87
2018-12-09T04:11:53.780Z,98738.26
2018-12-09T04:12:56.276Z,98731.98
2018-12-09T04:13:58.773Z,98725.70
2018-12-09T04:15:01.267Z,98733.13
2018-12-09T04:16:03.935Z,98738.63
2018-12-09T04:17:06.395Z,98730.97
2018-12-09T04:18:08.897Z,98735.09
2018-12-09T04:19:11.469Z,98726.85
2018-12-09T04:20:13.950Z,98728.22
2018-12-09T04:21:16.452Z,98728.22
2018-12-09T04:22:19.351Z,98733.71
2018-12-09T04:23:21.832Z,98733.71
2018-12-09T04:24:24.337Z,98735.87
2018-12-09T04:25:26.800Z,98746.28
2018-12-09T04:26:29.287Z,98748.80
2018-12-09T04:27:31.791Z,98742.16
2018-12-09T04:28:34.389Z,98736.45
2018-12-09T04:29:36.897Z,98736.45
2018-12-09T04:30:39.386Z,98729.93
2018-12-09T04:31:41.895Z,98731.88
2018-12-09T04:32:44.374Z,98737.95
2018-12-09T04:33:46.860Z,98729.13
2018-12-09T04:34:49.320Z,98759.32
2018-12-09T04:35:51.816Z,98733.03
2018-12-09T04:36:54.314Z,98750.87
2018-12-09T04:37:57.222Z,98739.10
2018-12-09T04:38:59.688Z,98737.73
2018-12-09T04:40:02.174Z,98732.82
2018-12-09T04:41:04.662Z,98734.41
2018-12-09T04:42:07.177Z,98746.54
2018-12-09T04:43:09.635Z,98743.58
2018-12-09T04:44:12.111Z,98744.16
2018-12-09T04:45:14.583Z,98743.37
2018-12-09T04:46:17.066Z,98737.88
2018-12-09T04:47:19.574Z,98741.99
2018-12-09T04:48:22.526Z,98737.66
2018-12-09T04:49:25.076Z,98741.20
2018-12-09T04:50:27.565Z,98748.28
2018-12-09T04:51:34.753Z,98745.89
2018-12-09T04:52:37.268Z,98729.22
2018-12-09T04:53:39.776Z,98745.68
2018-12-09T04:54:42.832Z,98743.73
2018-12-09T04:55:45.316Z,98737.88
2018-12-09T04:56:47.795Z,98741.48
2018-12-09T04:57:50.280Z,98743.75
2018-12-09T04:59:00.549Z,98750.31
2018-12-09T05:01:41.564Z,98747.86
2018-12-09T05:02:44.130Z,98754.64
2018-12-09T05:03:46.627Z,98758.27
2018-12-09T05:04:49.405Z,98757.00
2018-12-09T05:05:52.307Z,98767.83
2018-12-09T05:06:54.776Z,98766.30
2018-12-09T05:07:57.254Z,98756.91
2018-12-09T05:08:59.739Z,98750.14
2018-12-09T05:10:02.208Z,98767.83
2018-12-09T05:11:04.667Z,98770.37
2018-12-09T05:12:07.146Z,98767.04
2018-12-09T05:13:09.645Z,98762.34
2018-12-09T05:14:12.125Z,98773.17
2018-12-09T05:15:14.592Z,98762.62
2018-12-09T05:16:17.080Z,98763.98
2018-12-09T05:17:19.557Z,98762.62
2018-12-09T05:18:22.063Z,98779.31
2018-12-09T05:19:24.545Z,98783.06
2018-12-09T05:20:27.446Z,98774.98
2018-12-09T05:21:29.930Z,98784.01
2018-12-09T05:22:32.389Z,98795.58
2018-12-09T05:23:34.890Z,98770.64
2018-12-09T05:24:37.369Z,98777.51
2018-12-09T05:25:39.831Z,98786.33
2018-12-09T05:26:42.296Z,98781.78
2018-12-09T05:27:44.777Z,98780.98
2018-12-09T05:28:47.311Z,98778.39
2018-12-09T05:29:49.816Z,98787.21
2018-12-09T05:30:52.298Z,98778.97
2018-12-09T05:31:54.805Z,98790.29
2018-12-09T05:32:57.280Z,98789.50
2018-12-09T05:33:59.783Z,98782.41
2018-12-09T05:35:02.710Z,98780.83
2018-12-09T05:36:05.286Z,98781.98
2018-12-09T05:37:07.762Z,98785.89
2018-12-09T05:38:10.224Z,98789.58
2018-12-09T05:39:12.708Z,98778.59
2018-12-09T05:40:15.201Z,98791.53
2018-12-09T05:41:17.681Z,98793.27
2018-12-09T05:42:20.166Z,98784.82
2018-12-09T05:43:22.632Z,98793.05
2018-12-09T05:44:25.134Z,98785.73
2018-12-09T05:45:27.618Z,98789.27
2018-12-09T05:46:30.109Z,98793.75
2018-12-09T05:47:32.614Z,98810.23
2018-12-09T05:48:35.099Z,98813.30
2018-12-09T05:49:37.896Z,98818.00
2018-12-09T05:50:40.390Z,98804.27
2018-12-09T05:51:42.962Z,98797.78
2018-12-09T05:52:45.434Z,98799.15
2018-12-09T05:53:47.899Z,98814.25
2018-12-09T05:54:50.402Z,98810.71
2018-12-09T05:55:52.898Z,98813.45
2018-12-09T05:56:55.409Z,98804.79
2018-12-09T05:57:57.907Z,98802.84
2018-12-09T05:59:00.408Z,98805.36
2018-12-09T06:00:03.171Z,98804.57
2018-12-09T06:01:05.651Z,98812.59
2018-12-09T06:02:20.060Z,98815.34
2018-12-09T06:03:22.539Z,98818.66
2018-12-09T06:04:25.171Z,98816.50
2018-12-09T06:05:27.701Z,98818.45
2018-12-09T06:06:30.186Z,98813.31
2018-12-09T06:07:33.104Z,98811.94
2018-12-09T06:08:35.941Z,98812.89
2018-12-09T06:09:38.446Z,98811.73
2018-12-09T06:10:40.962Z,98821.34
2018-12-09T06:11:43.461Z,98829.14
2018-12-09T06:12:46.046Z,98816.79
2018-12-09T06:13:48.528Z,98813.83
2018-12-09T06:14:50.999Z,98816.33
2018-12-09T06:15:53.521Z,98818.85
2018-12-09T06:16:55.996Z,98822.76
2018-12-09T06:17:58.459Z,98823.91
2018-12-09T06:19:00.942Z,98831.35
2018-12-09T06:20:04.345Z,98829.40
2018-12-09T06:21:06.828Z,98834.89
2018-12-09T06:22:09.418Z,98836.05
2018-12-09T06:23:12.219Z,98833.09
2018-12-09T06:24:14.781Z,98831.72
2018-12-09T06:25:17.319Z,98834.24
2018-12-09T06:26:19.860Z,98823.05
2018-12-09T06:27:22.339Z,98826.37
2018-12-09T06:28:24.804Z,98832.44
2018-12-09T06:29:27.297Z,98821.67
2018-12-09T06:30:29.760Z,98837.92
2018-12-09T06:31:32.240Z,98826.95
2018-12-09T06:32:34.718Z,98835.40
2018-12-09T06:33:37.212Z,98828.32
2018-12-09T06:34:39.678Z,98827.16
2018-12-09T06:35:42.185Z,98824.20
2018-12-09T06:36:44.678Z,98829.69
2018-12-09T06:37:47.574Z,98822.83
2018-12-09T06:38:50.065Z,98829.69
2018-12-09T06:39:52.547Z,98820.09
2018-12-09T06:40:55.051Z,98820.66
2018-12-09T06:41:57.534Z,98822.61
2018-12-09T06:43:00.025Z,98821.45
2018-12-09T06:44:02.529Z,98826.22
2018-12-09T06:45:05.277Z,98823.19
2018-12-09T06:46:07.788Z,98823.86
2018-12-09T06:47:10.291Z,98831.66
2018-12-09T06:48:12.824Z,98838.02
2018-12-09T06:49:15.325Z,98837.44
2018-12-09T06:50:17.829Z,98838.94
2018-12-09T06:51:20.311Z,98839.59
2018-12-09T06:52:23.280Z,98848.47
2018-12-09T06:53:25.763Z,98848.11
2018-12-09T06:54:28.257Z,98845.58
2018-12-09T06:55:30.716Z,98852.02
2018-12-09T06:56:33.198Z,98845.58
2018-12-09T06:57:35.829Z,98847.96
2018-12-09T06:58:38.523Z,98852.88
2018-12-09T06:59:40.990Z,98853.67
2018-12-09T07:00:43.488Z,98855.05
2018-12-09T07:01:45.985Z,98854.50
2018-12-09T07:02:48.560Z,98861.91
2018-12-09T07:03:51.050Z,98855.87
2018-12-09T07:04:53.570Z,98859.16
2018-12-09T07:05:56.482Z,98848.75
2018-12-09T07:06:58.973Z,98852.66
2018-12-09T07:08:01.499Z,98857.36
2018-12-09T07:09:05.322Z,98851.07
2018-12-09T07:10:08.122Z,98857.72
2018-12-09T07:11:10.591Z,98864.59
2018-12-09T07:12:13.062Z,98857.87
2018-12-09T07:13:15.563Z,98863.36
2018-12-09T07:14:18.069Z,98855.70
2018-12-09T07:15:20.539Z,98870.02
2018-12-09T07:16:23.042Z,98870.66
2018-12-09T07:17:25.518Z,98871.38
2018-12-09T07:18:28.034Z,98878.75
2018-12-09T07:19:30.511Z,98875.66
2018-12-09T07:20:33.441Z,98879.13
2018-12-09T07:21:35.936Z,98887.66
2018-12-09T07:22:38.431Z,98879.92
2018-12-09T07:23:40.936Z,98896.08
2018-12-09T07:24:43.418Z,98883.36
2018-12-09T07:25:45.896Z,98887.61
2018-12-09T07:26:48.458Z,98887.87
2018-12-09T07:27:51.053Z,98885.98
2018-12-09T07:28:53.604Z,98892.77
2018-12-09T07:30:02.182Z,98889.55
2018-12-09T07:31:00.565Z,98889.12
2018-12-09T07:32:03.038Z,98890.70
2018-12-09T07:33:05.524Z,98889.55
2018-12-09T07:34:08.031Z,98904.09
2018-12-09T07:35:10.847Z,98897.23
2018-12-09T07:36:13.731Z,98909.59
2018-12-09T07:37:16.195Z,98904.09
2018-12-09T07:38:18.689Z,98914.72
2018-12-09T07:39:21.197Z,98912.77
2018-12-09T07:40:23.672Z,98921.80
2018-12-09T07:41:26.173Z,98921.58
2018-12-09T07:42:28.669Z,98928.33
2018-12-09T07:43:31.278Z,98924.56
2018-12-09T07:44:33.929Z,98927.23
2018-12-09T07:45:36.430Z,98927.80
2018-12-09T07:46:38.912Z,98929.61
2018-12-09T07:47:41.391Z,98933.23
2018-12-09T07:48:43.870Z,98929.67
2018-12-09T07:49:46.840Z,98938.86
2018-12-09T07:50:49.309Z,98925.10
2018-12-09T07:51:51.819Z,98931.40
2018-12-09T07:52:54.296Z,98930.42
2018-12-09T07:53:56.793Z,98936.28
2018-12-09T07:54:59.287Z,98937.58
2018-12-09T07:56:01.746Z,98935.08
2018-12-09T07:57:04.196Z,98939.08
2018-12-09T07:58:06.685Z,98939.58
2018-12-09T07:59:09.964Z,98938.38
2018-12-09T08:00:12.507Z,98932.96
2018-12-09T08:01:14.978Z,98945.55
2018-12-09T08:02:17.453Z,98942.86
2018-12-09T08:03:19.922Z,98946.69
2018-12-09T08:04:22.407Z,98948.06
2018-12-09T08:05:24.909Z,98942.20
2018-12-09T08:06:27.363Z,98944.45
2018-12-09T08:07:29.836Z,98953.14
2018-12-09T08:08:32.314Z,98948.28
2018-12-09T08:09:34.856Z,98955.28
2018-12-09T08:10:37.361Z,98952.20
2018-12-09T08:11:39.855Z,98948.77
2018-12-09T08:12:42.311Z,98951.46
2018-12-09T08:13:44.795Z,98956.10
2018-12-09T08:14:47.284Z,98949.50
2018-12-09T08:15:49.765Z,98953.55
2018-12-09T08:16:52.228Z,98951.11
2018-12-09T08:17:54.746Z,98953.58
2018-12-09T08:18:57.230Z,98956.80
2018-12-09T08:19:59.703Z,98955.94
2018-12-09T08:21:02.289Z,98953.92
2018-12-09T08:22:04.791Z,98958.55
2018-12-09T08:23:07.358Z,98957.66
2018-12-09T08:24:09.819Z,98955.27
2018-12-09T08:25:12.279Z,98959.17
2018-12-09T08:26:14.837Z,98948.19
2018-12-09T08:27:17.332Z,98954.42
2018-12-09T08:28:19.841Z,98954.64
2018-12-09T08:29:22.322Z,98963.32
2018-12-09T08:30:24.878Z,98964.12
2018-12-09T08:31:27.354Z,98963.53
2018-12-09T08:32:29.822Z,98974.89
2018-12-09T08:33:32.298Z,98970.77
2018-12-09T08:34:34.781Z,98970.92
2018-12-09T08:35:37.263Z,98975.73
2018-12-09T08:36:39.755Z,98967.27
2018-12-09T08:37:42.227Z,98974.14
2018-12-09T08:38:44.694Z,98972.55
2018-12-09T08:39:47.226Z,98971.91
2018-12-09T08:40:49.782Z,98972.98
2018-12-09T08:41:52.267Z,98974.72
2018-12-09T08:42:54.751Z,98970.72
2018-12-09T08:43:57.238Z,98980.91
2018-12-09T08:44:59.703Z,98973.83
2018-12-09T08:46:02.251Z,98974.98
2018-12-09T08:47:04.708Z,98978.88
2018-12-09T08:48:07.171Z,98978.88
2018-12-09T08:49:09.693Z,98981.41
2018-12-09T08:50:12.300Z,98981.20
2018-12-09T08:51:14.918Z,98983.88
2018-12-09T08:52:17.423Z,98982.64
2018-12-09T08:53:19.982Z,98979.67
2018-12-09T08:54:22.469Z,98986.66
2018-12-09T08:55:25.039Z,98980.87
2018-12-09T08:56:27.571Z,98991.99
2018-12-09T08:57:30.024Z,98983.10
2018-12-09T08:58:32.513Z,98985.27
2018-12-09T08:59:34.972Z,98994.63
2018-12-09T09:00:37.446Z,98998.06
2018-12-09T09:01:39.927Z,98999.00
2018-12-09T09:02:42.428Z,98987.36
2018-12-09T09:03:44.899Z,99001.38
2018-12-09T09:04:47.385Z,98998.88
2018-12-09T09:05:49.896Z,99005.80
2018-12-09T09:06:52.372Z,99000.22
2018-12-09T09:07:54.852Z,99002.20
2018-12-09T09:08:57.335Z,99005.08
2018-12-09T09:09:59.846Z,99000.88
2018-12-09T09:11:02.326Z,99002.96
2018-12-09T09:12:04.793Z,99006.06
2018-12-09T09:13:07.287Z,99007.53
2018-12-09T09:14:09.756Z,99005.50
2018-12-09T09:15:12.270Z,99010.55
2018-12-09T09:16:14.731Z,99012.05
2018-12-09T09:17:17.206Z,99009.23
2018-12-09T09:18:19.689Z,99011.85
2018-12-09T09:19:22.167Z,99006.86
2018-12-09T09:20:24.659Z,99006.41
2018-12-09T09:21:27.302Z,99012.83
2018-12-09T09:22:29.853Z,99009.77
2018-12-09T09:23:32.320Z,99017.78
2018-12-09T09:24:34.829Z,99007.70
2018-12-09T09:25:37.324Z,99020.48
2018-12-09T09:26:39.820Z,99013.36
2018-12-09T09:27:42.336Z,99017.23
2018-12-09T09:28:44.830Z,99013.08
2018-12-09T09:29:47.323Z,99021.61
2018-12-09T09:30:49.812Z,99019.20
2018-12-09T09:31:52.283Z,99023.63
2018-12-09T09:32:54.764Z,99020.74
2018-12-09T09:33:57.243Z,99024.37
2018-12-09T09:34:59.716Z,99019.35
2018-12-09T09:36:02.172Z,99015.89
2018-12-09T09:37:04.627Z,99015.76
2018-12-09T09:38:07.103Z,99024.21
2018-12-09T09:39:09.639Z,99007.96
2018-12-09T09:40:12.147Z,99024.87
2018-12-09T09:41:14.935Z,99023.72
2018-12-09T09:42:17.544Z,99024.95
2018-12-09T09:43:20.035Z,99025.20
2018-12-09T09:44:22.587Z,99030.34
2018-12-09T09:45:25.081Z,99024.84
2018-12-09T09:46:27.590Z,99029.76
2018-12-09T09:47:30.055Z,99025.64
2018-12-09T09:48:32.532Z,99029.76
2018-12-09T09:49:35.038Z,99036.18
2018-12-09T09:50:37.546Z,99031.27
2018-12-09T09:51:40.053Z,99034.56
2018-12-09T09:52:42.545Z,99031.02
2018-12-09T09:53:45.022Z,99032.97
2018-12-09T09:54:47.518Z,99040.05
2018-12-09T09:55:49.990Z,99037.66
2018-12-09T09:56:52.476Z,99036.87
2018-12-09T09:57:54.979Z,99038.45
2018-12-09T09:58:57.463Z,99035.27
2018-12-09T09:59:59.969Z,99030.00
2018-12-09T10:01:02.442Z,99039.61
2018-12-09T10:02:04.911Z,99034.70
2018-12-09T10:03:07.456Z,99035.49
2018-12-09T10:04:09.926Z,99035.49
2018-12-09T10:05:12.427Z,99038.02
2018-12-09T10:06:14.896Z,99034.48
2018-12-09T10:07:17.356Z,99037.00
2018-12-09T10:08:19.811Z,99039.17
2018-12-09T10:09:22.294Z,99039.17
2018-12-09T10:10:24.809Z,99038.02
2018-12-09T10:11:27.282Z,99034.83
2018-12-09T10:12:29.762Z,99037.00
2018-12-09T10:13:32.238Z,99050.15
2018-12-09T10:14:34.705Z,99044.66
2018-12-09T10:15:37.198Z,99040.33
2018-12-09T10:16:39.706Z,99035.41
2018-12-09T10:17:42.191Z,99040.90
2018-12-09T10:18:44.687Z,99038.73
2018-12-09T10:19:47.226Z,99042.27
2018-12-09T10:20:49.726Z,99047.55
2018-12-09T10:21:52.203Z,99046.17
2018-12-09T10:22:54.675Z,99038.52
2018-12-09T10:23:57.224Z,99043.78
2018-12-09T10:24:59.761Z,99039.66
2018-12-09T10:26:02.236Z,99036.12
2018-12-09T10:27:04.718Z,99045.73
2018-12-09T10:28:07.180Z,99049.84
2018-12-09T10:29:09.639Z,99042.19
2018-12-09T10:30:12.168Z,99049.84
2018-12-09T10:31:14.654Z,99043.34
2018-12-09T10:32:17.154Z,99047.68
2018-12-09T10:33:19.634Z,99045.29
2018-12-09T10:34:22.120Z,99039.22
2018-12-09T10:35:24.606Z,99042.33
2018-12-09T10:36:27.108Z,99038.42
2018-12-09T10:37:29.584Z,99047.23
2018-12-09T10:38:32.072Z,99045.64
2018-12-09T10:39:34.550Z,99048.17
2018-12-09T10:40:37.044Z,99047.95
2018-12-09T10:41:39.565Z,99052.06
2018-12-09T10:42:42.046Z,99046.90
2018-12-09T10:43:44.509Z,99048.84
2018-12-09T10:44:46.968Z,99047.04
2018-12-09T10:45:49.453Z,99040.17
2018-12-09T10:46:51.980Z,99052.06
2018-12-09T10:47:54.445Z,99043.83
2018-12-09T10:48:56.923Z,99051.02
2018-12-09T10:49:59.410Z,99046.11
2018-12-09T10:51:01.899Z,99049.64
2018-12-09T10:52:04.384Z,99048.27
2018-12-09T10:53:06.848Z,99054.34
2018-12-09T10:54:09.344Z,99045.88
2018-12-09T10:55:11.842Z,99054.34
2018-12-09T10:56:14.317Z,99049.78
2018-12-09T10:57:16.814Z,99051.16
2018-12-09T10:58:19.302Z,99056.42
2018-12-09T10:59:21.774Z,99054.83
2018-12-09T11:00:29.997Z,99062.05
2018-12-09T11:01:38.473Z,99054.16
2018-12-09T11:02:40.988Z,99051.20
2018-12-09T11:03:43.444Z,99057.84
2018-12-09T11:04:46.365Z,99059.34
2018-12-09T11:05:48.833Z,99055.80
2018-12-09T11:06:51.356Z,99054.18
2018-12-09T11:07:53.850Z,99055.34
2018-12-09T11:08:56.404Z,99064.94
2018-12-09T11:09:58.876Z,99062.77
2018-12-09T11:11:01.347Z,99067.91
2018-12-09T11:12:03.824Z,99065.16
2018-12-09T11:13:06.308Z,99067.91
2018-12-09T11:14:08.789Z,99061.30
2018-12-09T11:15:11.293Z,99061.88
2018-12-09T11:16:13.775Z,99059.34
2018-12-09T11:17:16.263Z,99055.01
2018-12-09T11:18:18.768Z,99061.30
2018-12-09T11:19:21.300Z,99066.53
2018-12-09T11:20:23.968Z,99066.20
2018-12-09T11:21:30.587Z,99063.91
2018-12-09T11:22:31.019Z,99068.38
2018-12-09T11:23:33.505Z,99070.89
2018-12-09T11:24:35.983Z,99070.64
2018-12-09T11:25:38.465Z,99072.95
2018-12-09T11:26:40.926Z,99069.19
2018-12-09T11:27:43.413Z,99070.91
2018-12-09T11:28:45.908Z,99068.08
2018-12-09T11:29:48.376Z,99075.52
2018-12-09T11:30:50.885Z,99073.47
2018-12-09T11:31:53.457Z,99072.10
2018-12-09T11:32:55.935Z,99082.38
2018-12-09T11:33:58.436Z,99082.16
2018-12-09T11:35:00.924Z,99080.34
2018-12-09T11:36:03.517Z,99082.86
2018-12-09T11:37:05.985Z,99074.19
2018-12-09T11:38:08.485Z,99084.36
2018-12-09T11:39:10.982Z,99079.23
2018-12-09T11:40:13.572Z,99082.90
2018-12-09T11:41:16.038Z,99086.22
2018-12-09T11:42:18.528Z,99082.67
2018-12-09T11:43:21.007Z,99093.20
2018-12-09T11:44:23.538Z,99086.34
2018-12-09T11:45:26.034Z,99078.69
2018-12-09T11:46:28.544Z,99089.41
2018-12-09T11:47:31.203Z,99089.19
2018-12-09T11:48:33.678Z,99094.09
2018-12-09T11:49:36.171Z,99085.42
2018-12-09T11:50:38.664Z,99099.48
2018-12-09T11:51:41.158Z,99093.78
2018-12-09T11:52:43.824Z,99098.69
2018-12-09T11:53:46.431Z,99095.24
2018-12-09T11:54:48.941Z,99098.08
2018-12-09T11:55:51.404Z,99094.28
2018-12-09T11:56:53.903Z,99097.77
2018-12-09T11:57:56.394Z,99097.36
2018-12-09T11:58:58.871Z,99099.03
2018-12-09T12:00:01.406Z,99097.68
2018-12-09T12:01:04.197Z,99092.53
2018-12-09T12:02:06.777Z,99091.21
2018-12-09T12:03:09.258Z,99098.64
2018-12-09T12:04:12.608Z,99087.20
2018-12-09T12:05:15.356Z,99087.45
2018-12-09T12:06:17.824Z,99097.80
2018-12-09T12:07:20.315Z,99094.29
2018-12-09T12:08:22.871Z,99103.05
2018-12-09T12:09:25.484Z,99101.95
2018-12-09T12:10:28.000Z,99107.56
2018-12-09T12:11:30.456Z,99103.50
2018-12-09T12:12:32.951Z,99103.03
2018-12-09T12:13:35.412Z,99103.67
2018-12-09T12:14:37.876Z,99110.29
2018-12-09T12:15:40.402Z,99107.25
2018-12-09T12:16:42.910Z,99110.21